Time;durP1;ratioP1;P1;durP2;ratioP2;P2;SDS_P1;SDS_P2;PMS_P1;PMS_P2;Temp;Humidity;BMP_temperature;BMP_pressure;BME280_temperature;BME280_humidity;BME280_pressure;Samples;Min_cycle;Max_cycle;Signal;HPM_P1;HPM_P2
2022/07/24 00:00:40;;;;;;;71.75;33.22;;;25.40;99.90;;;;;;4893468;29;20033;-66
2022/07/24 00:03:06;;;;;;;65.68;30.83;;;25.50;99.90;;;;;;4874824;29;20033;-67
2022/07/24 00:20:45;;;;;;;60.58;31.67;;;25.80;99.90;;;;;;4989065;28;20027;-66
2022/07/24 00:23:32;;;;;;;58.78;31.35;;;25.80;99.90;;;;;;4988999;28;20443;-66
2022/07/24 00:26:19;;;;;;;58.92;31.45;;;25.90;99.90;;;;;;4931042;29;20048;-66
2022/07/24 00:28:45;;;;;;;54.63;30.13;;;25.90;99.90;;;;;;4912183;29;20052;-66
2022/07/24 00:31:12;;;;;;;57.47;32.72;;;25.90;99.90;;;;;;4910918;29;20048;-66
2022/07/24 00:56:21;;;;;;;69.13;45.78;;;26.10;99.90;;;;;;4977214;28;20132;-66
2022/07/24 00:59:07;;;;;;;61.80;44.80;;;26.20;99.90;;;;;;4914565;29;20036;-66
2022/07/24 01:01:34;;;;;;;83.20;55.50;;;26.30;99.90;;;;;;4874809;29;20046;-66
2022/07/24 01:04:40;;;;;;;81.18;54.72;;;26.30;99.90;;;;;;4876926;29;20126;-66
2022/07/24 01:19:32;;;;;;;80.28;54.20;;;26.70;99.90;;;;;;5088250;28;20036;-66
2022/07/24 01:21:58;;;;;;;75.95;52.72;;;26.70;99.90;;;;;;5024116;28;20379;-66
2022/07/24 01:40:34;;;;;;;55.20;44.88;;;27.10;99.90;;;;;;5090967;28;20398;-65
2022/07/24 01:46:27;;;;;;;61.67;42.20;;;27.10;99.90;;;;;;5028592;28;20570;-65
2022/07/24 01:49:14;;;;;;;58.55;45.78;;;27.10;99.90;;;;;;4950377;29;20129;-65
2022/07/24 01:55:06;;;;;;;56.67;42.28;;;27.20;99.90;;;;;;4856163;29;20819;-65
2022/07/24 02:10:14;;;;;;;57.78;44.83;;;27.60;99.90;;;;;;5068545;28;20037;-63
2022/07/24 02:12:41;;;;;;;54.28;42.70;;;27.60;99.90;;;;;;5009082;28;20431;-63
2022/07/24 02:15:08;;;;;;;62.65;48.40;;;27.70;99.90;;;;;;5008709;28;20117;-64
2022/07/24 02:17:35;;;;;;;50.78;44.70;;;27.70;99.90;;;;;;5008430;28;20494;-64
2022/07/24 02:29:21;;;;;;;68.55;51.95;;;28.10;99.90;;;;;;4801362;29;20046;-65
2022/07/24 02:41:23;;;;;;;75.97;59.63;;;28.40;99.90;;;;;;5090735;27;20406;-66
2022/07/24 02:50:03;;;;;;;69.15;54.83;;;28.40;99.90;;;;;;4874499;29;20037;-68
2022/07/24 02:55:56;;;;;;;80.10;61.17;;;28.50;99.90;;;;;;4801307;29;20039;-66
2022/07/24 03:07:58;;;;;;;71.18;59.83;;;28.40;99.90;;;;;;5090783;28;20406;-66
2022/07/24 03:13:31;;;;;;;74.65;60.53;;;28.40;99.90;;;;;;5087922;28;20119;-66
2022/07/24 03:15:58;;;;;;;81.47;61.85;;;28.40;99.90;;;;;;5008526;28;20058;-67
2022/07/24 03:18:25;;;;;;;66.15;54.75;;;28.50;99.90;;;;;;5008743;28;20030;-66
2022/07/24 03:21:11;;;;;;;74.10;61.00;;;28.60;99.90;;;;;;5008543;28;20034;-65
2022/07/24 03:23:58;;;;;;;79.75;62.50;;;28.60;99.90;;;;;;4950260;29;20034;-67
2022/07/24 03:49:27;;;;;;;62.05;52.40;;;29.50;99.90;;;;;;5068301;28;20032;-66
2022/07/24 03:55:39;;;;;;;63.00;52.63;;;29.60;99.90;;;;;;4914850;29;20424;-65
2022/07/24 04:01:12;;;;;;;64.97;53.55;;;29.50;99.90;;;;;;4856410;29;20070;-65
2022/07/24 04:03:39;;;;;;;60.97;50.70;;;29.50;99.90;;;;;;4783311;29;20512;-66
2022/07/24 04:20:58;;;;;;;56.50;45.08;;;29.40;99.90;;;;;;5028450;28;20539;-65
2022/07/24 04:23:44;;;;;;;55.90;46.67;;;29.50;99.90;;;;;;4988985;28;20471;-65
2022/07/24 04:26:11;;;;;;;47.03;40.80;;;29.60;99.90;;;;;;4912239;29;20032;-65
2022/07/24 04:31:45;;;;;;;55.22;43.22;;;29.80;99.90;;;;;;4931068;29;20047;-66
2022/07/24 04:34:31;;;;;;;47.75;41.33;;;29.90;99.90;;;;;;4893114;29;20458;-66
2022/07/24 04:36:58;;;;;;;54.00;42.13;;;29.90;99.90;;;;;;4855904;29;20484;-66
2022/07/24 04:39:44;;;;;;;52.15;43.40;;;29.90;99.90;;;;;;4855986;29;20125;-66
2022/07/24 04:59:02;;;;;;;43.42;35.20;;;29.70;99.90;;;;;;4837712;29;20121;-66
2022/07/24 05:01:49;;;;;;;42.03;33.63;;;29.70;99.90;;;;;;4801401;29;20062;-66
2022/07/24 05:04:35;;;;;;;41.20;30.08;;;29.70;99.90;;;;;;4748016;30;20135;-66
2022/07/24 05:13:15;;;;;;;37.95;30.55;;;29.70;99.90;;;;;;5111032;27;20439;-65
2022/07/24 05:16:21;;;;;;;38.08;27.38;;;29.80;99.90;;;;;;5088615;28;20056;-66
2022/07/24 05:19:08;;;;;;;29.50;24.67;;;29.90;99.90;;;;;;4969747;28;20074;-66
2022/07/24 05:25:40;;;;;;;43.10;33.33;;;30.00;99.90;;;;;;4819340;29;20049;-66
2022/07/24 05:37:42;;;;;;;30.23;23.85;;;30.50;99.90;;;;;;5109739;27;20989;-66
2022/07/24 05:40:09;;;;;;;27.27;23.48;;;30.60;99.90;;;;;;5107239;28;20020;-65
2022/07/24 05:42:36;;;;;;;31.65;26.23;;;30.60;99.90;;;;;;5108923;28;20016;-65
2022/07/24 05:45:04;;;;;;;48.00;31.65;;;30.70;99.90;;;;;;5107762;28;20036;-65
2022/07/24 05:47:37;;;;;;;35.58;29.08;;;30.80;99.90;;;;;;5109763;28;20036;-65
2022/07/24 05:50:08;;;;;;;40.35;28.48;;;31.00;99.90;;;;;;5109659;28;20027;-65
2022/07/24 05:52:34;;;;;;;31.75;25.70;;;31.20;99.90;;;;;;5109719;28;20028;-65
2022/07/24 05:55:01;;;;;;;30.17;25.90;;;31.20;99.90;;;;;;5109656;28;20028;-66
2022/07/24 05:57:28;;;;;;;35.53;25.00;;;31.30;99.90;;;;;;5106816;28;20099;-66
2022/07/24 05:59:54;;;;;;;35.83;26.77;;;31.20;99.90;;;;;;5110351;28;20030;-66
2022/07/24 06:02:21;;;;;;;28.98;23.60;;;31.20;99.90;;;;;;5110838;28;20019;-66
2022/07/24 06:04:47;;;;;;;29.75;24.33;;;31.10;99.90;;;;;;5110605;28;20058;-66
2022/07/24 06:07:14;;;;;;;34.15;24.15;;;31.10;99.90;;;;;;5111111;28;20418;-65
2022/07/24 06:09:41;;;;;;;32.05;24.65;;;31.00;99.90;;;;;;5110707;28;20039;-64
2022/07/24 06:12:07;;;;;;;27.52;23.50;;;31.10;99.90;;;;;;5110385;28;20026;-63
2022/07/24 06:14:34;;;;;;;29.38;23.00;;;31.20;99.90;;;;;;5110421;28;20027;-64
2022/07/24 06:17:01;;;;;;;32.03;23.60;;;31.20;99.90;;;;;;5109381;28;20055;-64
2022/07/24 06:19:27;;;;;;;25.38;21.00;;;31.00;99.90;;;;;;5110201;28;20027;-64
2022/07/24 06:21:54;;;;;;;26.38;21.38;;;31.00;99.90;;;;;;5110183;28;20259;-64
2022/07/24 06:24:20;;;;;;;25.13;21.52;;;30.90;99.90;;;;;;5110290;28;20020;-64
2022/07/24 06:26:47;;;;;;;26.25;20.63;;;30.90;99.90;;;;;;5110110;28;20032;-64
2022/07/24 06:29:13;;;;;;;25.95;21.35;;;30.90;99.90;;;;;;5109922;28;20028;-64
2022/07/24 06:31:40;;;;;;;32.30;22.40;;;30.90;99.90;;;;;;5109007;28;20536;-64
2022/07/24 06:34:06;;;;;;;28.42;21.05;;;31.00;99.90;;;;;;5108517;28;20072;-64
2022/07/24 06:36:33;;;;;;;23.58;20.17;;;31.20;99.90;;;;;;5107937;28;20387;-64
2022/07/24 06:39:00;;;;;;;25.00;18.45;;;31.40;99.90;;;;;;5109161;28;20073;-64
2022/07/24 06:41:26;;;;;;;21.45;18.65;;;31.60;99.90;;;;;;5109018;28;20499;-64
2022/07/24 06:43:53;;;;;;;22.17;18.88;;;31.70;99.90;;;;;;5108897;28;20028;-64
2022/07/24 06:46:20;;;;;;;24.05;20.17;;;31.90;99.90;;;;;;5109387;28;20028;-64
2022/07/24 06:48:46;;;;;;;21.55;18.85;;;32.00;99.90;;;;;;5097356;28;20030;-64
2022/07/24 06:51:13;;;;;;;23.20;20.83;;;32.10;99.90;;;;;;5095970;28;20038;-64
2022/07/24 06:53:41;;;;;;;25.73;21.02;;;32.20;99.90;;;;;;5096082;28;20024;-64
2022/07/24 06:56:08;;;;;;;31.45;21.05;;;32.30;99.90;;;;;;5095682;28;20388;-64
2022/07/24 06:58:34;;;;;;;22.85;19.63;;;32.40;99.90;;;;;;5095796;28;20353;-64
2022/07/24 07:01:01;;;;;;;25.83;20.40;;;32.50;99.90;;;;;;5095937;28;20073;-64
2022/07/24 07:03:27;;;;;;;25.30;20.42;;;32.50;99.90;;;;;;5095844;28;20028;-64
2022/07/24 07:05:54;;;;;;;25.58;20.52;;;32.30;99.90;;;;;;5095679;28;20050;-64
2022/07/24 07:08:20;;;;;;;24.77;20.30;;;32.20;99.90;;;;;;5095854;28;20024;-64
2022/07/24 07:10:47;;;;;;;22.60;18.52;;;32.10;99.90;;;;;;5095868;28;20020;-64
2022/07/24 07:13:14;;;;;;;25.58;19.35;;;32.00;99.90;;;;;;5096033;28;20357;-64
2022/07/24 07:15:40;;;;;;;25.15;20.00;;;31.90;99.90;;;;;;5095573;28;20089;-64
2022/07/24 07:18:07;;;;;;;27.52;21.30;;;31.80;99.40;;;;;;5095928;28;20023;-64
2022/07/24 07:20:33;;;;;;;27.55;20.25;;;31.70;98.70;;;;;;5095423;28;20016;-64
2022/07/24 07:23:00;;;;;;;23.95;19.50;;;31.70;99.20;;;;;;5095482;28;20048;-64
2022/07/24 07:25:26;;;;;;;30.05;21.27;;;31.70;99.70;;;;;;5095476;28;20024;-64
2022/07/24 07:27:53;;;;;;;32.03;23.15;;;31.70;99.60;;;;;;5095593;28;20055;-64
2022/07/24 07:30:19;;;;;;;29.10;21.58;;;31.70;99.90;;;;;;5095460;28;20499;-64
2022/07/24 07:32:46;;;;;;;25.98;21.23;;;31.70;99.90;;;;;;5095303;28;20028;-64
2022/07/24 07:35:13;;;;;;;24.63;21.13;;;31.80;99.60;;;;;;5095344;28;20020;-64
2022/07/24 07:37:39;;;;;;;24.50;20.67;;;31.70;99.70;;;;;;5095138;28;20115;-64
2022/07/24 07:40:06;;;;;;;23.65;18.50;;;31.70;99.60;;;;;;5095189;28;20016;-64
2022/07/24 07:42:33;;;;;;;24.77;17.65;;;31.80;99.60;;;;;;5095176;28;20023;-64
2022/07/24 07:45:00;;;;;;;23.55;19.13;;;31.80;98.30;;;;;;5094985;28;20020;-63
2022/07/24 07:47:26;;;;;;;23.42;19.08;;;31.80;97.60;;;;;;5094913;28;20024;-64
2022/07/24 07:49:53;;;;;;;24.33;20.25;;;31.70;98.00;;;;;;5094961;28;20032;-63
2022/07/24 07:52:19;;;;;;;26.15;21.05;;;31.80;97.80;;;;;;5094767;28;20081;-64
2022/07/24 07:54:46;;;;;;;27.13;19.77;;;31.80;97.90;;;;;;5095178;28;20361;-64
2022/07/24 07:57:12;;;;;;;24.55;18.42;;;31.80;97.80;;;;;;5094718;28;20028;-64
2022/07/24 07:59:39;;;;;;;28.63;20.20;;;31.90;98.20;;;;;;5093591;28;20024;-64
2022/07/24 08:02:05;;;;;;;35.70;19.23;;;32.00;98.50;;;;;;5093807;28;20385;-64
2022/07/24 08:04:32;;;;;;;29.10;18.63;;;32.00;98.00;;;;;;5094684;28;20031;-64
2022/07/24 08:06:58;;;;;;;25.05;19.05;;;32.20;98.10;;;;;;5094440;28;20024;-64
2022/07/24 08:09:25;;;;;;;24.35;17.23;;;32.40;97.90;;;;;;5094652;28;20122;-64
2022/07/24 08:11:51;;;;;;;22.13;16.95;;;32.50;97.90;;;;;;5094697;28;20032;-64
2022/07/24 08:14:18;;;;;;;20.60;16.20;;;32.70;98.00;;;;;;5094449;28;20078;-64
2022/07/24 08:16:44;;;;;;;20.38;17.13;;;32.70;97.00;;;;;;5094643;28;20028;-64
2022/07/24 08:19:11;;;;;;;19.98;16.85;;;32.70;97.00;;;;;;5094281;28;20081;-63
2022/07/24 08:21:37;;;;;;;19.65;16.38;;;32.60;96.00;;;;;;5094279;28;20024;-64
2022/07/24 08:24:04;;;;;;;22.42;16.23;;;32.50;97.30;;;;;;5094275;28;20099;-64
2022/07/24 08:26:31;;;;;;;27.55;21.33;;;32.40;97.60;;;;;;5094248;28;20085;-64
2022/07/24 08:28:59;;;;;;;25.25;18.42;;;32.40;97.60;;;;;;5093985;28;20024;-64
2022/07/24 08:31:26;;;;;;;28.75;18.23;;;32.30;97.40;;;;;;5094101;28;20115;-64
2022/07/24 08:33:53;;;;;;;32.10;19.10;;;32.20;98.10;;;;;;5094087;28;20434;-64
2022/07/24 08:36:20;;;;;;;32.95;23.90;;;32.00;98.80;;;;;;5093684;28;20048;-63
2022/07/24 08:38:46;;;;;;;42.40;27.17;;;31.80;98.80;;;;;;5094375;28;20032;-62
2022/07/24 08:41:13;;;;;;;36.35;27.65;;;31.60;99.90;;;;;;5094057;28;20021;-63
2022/07/24 08:43:40;;;;;;;41.13;30.05;;;31.50;99.90;;;;;;5093737;28;20372;-62
2022/07/24 08:46:11;;;;;;;37.10;28.08;;;31.30;99.90;;;;;;5093958;28;20023;-63
2022/07/24 08:48:44;;;;;;;40.25;25.15;;;31.20;99.90;;;;;;5093760;28;20035;-63
2022/07/24 08:51:13;;;;;;;28.30;22.52;;;31.00;99.90;;;;;;5093696;28;20024;-63
2022/07/24 08:53:40;;;;;;;23.77;18.15;;;31.00;99.90;;;;;;5093747;28;20393;-62
2022/07/24 08:56:07;;;;;;;35.13;24.65;;;30.90;99.90;;;;;;5093664;28;20028;-63
2022/07/24 08:58:40;;;;;;;26.58;19.90;;;30.80;99.90;;;;;;5093687;28;20026;-63
2022/07/24 09:01:08;;;;;;;43.40;22.27;;;30.70;99.90;;;;;;5093669;28;20026;-66
2022/07/24 09:03:46;;;;;;;39.55;23.85;;;30.60;99.90;;;;;;5093596;28;20028;-63
2022/07/24 09:06:14;;;;;;;37.13;20.33;;;30.20;99.90;;;;;;5093580;28;20518;-63
2022/07/24 09:09:03;;;;;;;24.45;17.95;;;29.70;99.90;;;;;;5093638;28;20090;-63
2022/07/24 09:11:30;;;;;;;27.30;17.40;;;29.40;99.90;;;;;;5093267;28;20443;-63
2022/07/24 09:16:52;;;;;;;28.38;17.45;;;29.10;99.90;;;;;;5093322;28;20080;-63
2022/07/24 09:19:21;;;;;;;38.03;18.92;;;29.20;99.90;;;;;;5093418;28;20031;-63
2022/07/24 09:21:49;;;;;;;26.50;18.13;;;29.20;99.90;;;;;;5093209;28;20027;-63
2022/07/24 09:24:20;;;;;;;26.23;19.15;;;29.10;99.90;;;;;;5093433;28;20161;-63
2022/07/24 09:26:47;;;;;;;24.40;18.67;;;28.90;99.90;;;;;;5093313;28;20024;-63
2022/07/24 09:29:15;;;;;;;29.83;18.48;;;28.70;99.90;;;;;;5093282;28;20023;-63
2022/07/24 09:32:02;;;;;;;27.58;17.23;;;28.70;99.90;;;;;;5093258;28;20051;-63
2022/07/24 09:34:38;;;;;;;26.38;21.48;;;28.70;99.90;;;;;;5093933;28;20031;-63
2022/07/24 09:37:07;;;;;;;31.25;20.92;;;28.70;99.90;;;;;;5088975;28;20439;-63
2022/07/24 09:39:36;;;;;;;34.65;24.38;;;28.80;99.90;;;;;;5081411;28;20107;-64
2022/07/24 09:42:07;;;;;;;42.15;23.40;;;28.60;99.90;;;;;;5082212;28;20020;-65
2022/07/24 09:44:34;;;;;;;37.65;22.58;;;28.50;99.90;;;;;;5090375;28;20082;-66
2022/07/24 09:47:06;;;;;;;30.35;20.45;;;28.50;99.90;;;;;;5093082;28;20035;-63
2022/07/24 09:49:33;;;;;;;30.55;17.65;;;28.10;99.90;;;;;;5091267;28;20033;-63
2022/07/24 09:52:21;;;;;;;26.52;15.48;;;27.80;99.90;;;;;;5082182;28;20473;-65
2022/07/24 09:54:49;;;;;;;26.80;14.50;;;27.70;99.90;;;;;;5073229;28;20111;-65
2022/07/24 09:57:18;;;;;;;25.80;14.30;;;27.60;99.90;;;;;;5073181;28;20389;-64
2022/07/24 09:59:49;;;;;;;20.75;13.93;;;27.50;99.90;;;;;;5072553;28;20044;-65
2022/07/24 10:02:18;;;;;;;17.98;11.95;;;27.50;99.90;;;;;;5073104;28;20017;-65
2022/07/24 10:04:46;;;;;;;18.13;11.30;;;27.30;99.90;;;;;;5072870;28;20488;-65
2022/07/24 10:07:15;;;;;;;20.55;11.70;;;27.20;99.90;;;;;;5072930;28;20021;-67
2022/07/24 10:09:48;;;;;;;16.50;10.70;;;27.20;99.90;;;;;;5072931;28;20123;-68
2022/07/24 10:12:18;;;;;;;16.85;9.75;;;27.20;99.90;;;;;;5072780;28;20099;-67
2022/07/24 10:14:46;;;;;;;15.38;9.85;;;27.10;99.90;;;;;;5072537;28;20447;-67
2022/07/24 10:17:14;;;;;;;11.68;8.23;;;27.00;99.90;;;;;;5072802;28;20030;-67
2022/07/24 10:19:50;;;;;;;10.95;8.25;;;27.10;99.90;;;;;;5072747;28;20381;-68
2022/07/24 10:22:20;;;;;;;13.25;7.68;;;27.10;99.90;;;;;;5073044;28;20047;-64
2022/07/24 10:25:09;;;;;;;13.27;8.77;;;27.20;99.90;;;;;;5078080;28;20020;-65
2022/07/24 10:27:37;;;;;;;14.15;9.20;;;27.30;99.90;;;;;;5085652;28;20077;-66
2022/07/24 10:30:09;;;;;;;12.93;9.52;;;27.30;99.90;;;;;;5078808;28;20020;-65
2022/07/24 10:32:37;;;;;;;13.07;8.63;;;27.60;99.90;;;;;;5084989;28;20100;-68
2022/07/24 10:35:11;;;;;;;13.43;10.00;;;27.80;99.90;;;;;;5076670;28;20031;-68
2022/07/24 10:37:39;;;;;;;15.70;10.90;;;27.90;99.90;;;;;;5076350;28;20060;-66
2022/07/24 10:40:11;;;;;;;15.23;10.65;;;28.00;99.90;;;;;;5076267;28;20020;-67
2022/07/24 10:43:09;;;;;;;17.13;11.02;;;28.10;99.90;;;;;;5077332;28;20028;-67
2022/07/24 10:45:40;;;;;;;17.92;11.02;;;28.10;99.90;;;;;;5093605;28;20042;-67
2022/07/24 10:48:28;;;;;;;20.13;11.00;;;28.10;99.90;;;;;;5095334;28;20097;-64
2022/07/24 10:51:00;;;;;;;14.63;10.32;;;28.00;99.90;;;;;;5093254;28;20032;-64
2022/07/24 10:53:41;;;;;;;16.70;11.23;;;28.10;99.90;;;;;;5095714;28;20205;-65
2022/07/24 10:56:27;;;;;;;15.48;13.05;;;28.10;99.90;;;;;;5093410;28;20107;-64
2022/07/24 10:59:07;;;;;;;16.23;12.18;;;28.10;99.90;;;;;;5093132;28;20020;-64
2022/07/24 11:01:36;;;;;;;23.60;14.43;;;28.10;99.90;;;;;;5092894;28;20427;-64
2022/07/24 11:04:24;;;;;;;20.60;14.20;;;28.20;99.90;;;;;;5090745;28;20020;-65
2022/07/24 11:06:53;;;;;;;18.63;13.30;;;28.10;99.90;;;;;;5093699;28;20295;-65
2022/07/24 11:09:29;;;;;;;29.00;21.33;;;28.00;99.90;;;;;;5094632;28;20047;-65
2022/07/24 11:11:55;;;;;;;26.27;19.98;;;28.00;99.90;;;;;;5092229;28;20020;-66
2022/07/24 11:14:24;;;;;;;29.20;19.60;;;28.00;99.90;;;;;;5094903;28;20099;-65
2022/07/24 11:16:51;;;;;;;32.92;21.10;;;28.00;99.90;;;;;;5095896;28;20432;-65
2022/07/24 11:19:17;;;;;;;31.55;20.63;;;28.00;99.90;;;;;;5089838;28;20028;-64
2022/07/24 11:21:49;;;;;;;30.25;22.10;;;28.00;99.90;;;;;;5087033;28;20091;-64
2022/07/24 11:24:16;;;;;;;34.28;24.42;;;28.00;99.90;;;;;;5096146;28;20024;-64
2022/07/24 11:26:48;;;;;;;39.58;26.45;;;27.90;99.90;;;;;;5095342;28;20055;-64
2022/07/24 11:29:17;;;;;;;40.63;27.05;;;27.90;99.90;;;;;;5095757;28;20031;-64
2022/07/24 11:31:48;;;;;;;29.45;23.42;;;27.90;99.90;;;;;;5095896;28;20047;-64
2022/07/24 11:34:15;;;;;;;33.78;23.48;;;27.90;99.90;;;;;;5095478;28;20032;-65
2022/07/24 11:36:47;;;;;;;34.10;23.83;;;27.90;99.90;;;;;;5095432;28;20073;-64
2022/07/24 11:39:15;;;;;;;43.72;29.05;;;27.90;99.90;;;;;;5096258;28;20023;-63
2022/07/24 11:41:56;;;;;;;43.75;29.77;;;27.90;99.90;;;;;;5095687;28;20050;-64
2022/07/24 11:44:31;;;;;;;47.35;31.45;;;27.90;99.90;;;;;;5096425;28;20380;-64
2022/07/24 11:47:18;;;;;;;47.60;32.13;;;28.00;99.90;;;;;;5096272;28;20039;-64
2022/07/24 11:49:44;;;;;;;47.78;32.30;;;28.00;99.90;;;;;;5095482;28;20035;-64
2022/07/24 11:52:18;;;;;;;51.25;34.33;;;28.00;99.90;;;;;;5095269;28;20111;-64
2022/07/24 11:54:46;;;;;;;46.70;34.97;;;28.00;99.90;;;;;;5095886;28;20499;-63
2022/07/24 11:57:17;;;;;;;43.53;31.05;;;27.80;99.90;;;;;;5096532;28;20232;-64
2022/07/24 11:59:44;;;;;;;38.47;26.83;;;27.60;99.90;;;;;;5096532;28;20016;-65
2022/07/24 12:02:11;;;;;;;42.70;28.70;;;27.50;99.90;;;;;;5095619;28;20016;-65
2022/07/24 12:04:40;;;;;;;36.50;24.85;;;27.50;99.90;;;;;;5095402;28;20013;-65
2022/07/24 12:07:09;;;;;;;38.38;23.17;;;27.60;99.90;;;;;;5095368;28;20441;-65
2022/07/24 12:09:50;;;;;;;32.88;20.70;;;27.50;99.90;;;;;;5094883;28;20020;-66
2022/07/24 12:12:19;;;;;;;29.48;20.60;;;27.50;99.90;;;;;;5094522;28;20468;-65
2022/07/24 12:14:46;;;;;;;28.27;20.85;;;27.40;99.90;;;;;;5091779;28;20059;-65
2022/07/24 12:17:13;;;;;;;29.60;19.48;;;27.50;99.90;;;;;;5093346;28;20468;-66
2022/07/24 12:19:39;;;;;;;29.30;18.98;;;27.40;99.90;;;;;;5094324;28;20031;-66
2022/07/24 12:22:06;;;;;;;37.78;19.83;;;27.40;99.90;;;;;;5094254;28;20020;-65
2022/07/24 12:24:33;;;;;;;25.40;17.95;;;27.40;99.90;;;;;;5094353;28;20373;-64
2022/07/24 12:27:00;;;;;;;26.85;17.40;;;27.30;99.90;;;;;;5094222;28;20020;-65
2022/07/24 12:29:27;;;;;;;25.23;15.45;;;27.30;99.90;;;;;;5094463;28;20035;-65
2022/07/24 12:32:14;;;;;;;24.55;15.50;;;27.20;99.90;;;;;;5094391;28;20024;-66
2022/07/24 12:34:43;;;;;;;28.27;16.15;;;27.30;99.90;;;;;;5093341;28;20035;-66
2022/07/24 12:37:22;;;;;;;23.80;16.98;;;27.30;99.90;;;;;;5090984;28;20509;-66
2022/07/24 12:39:52;;;;;;;26.95;18.35;;;27.50;99.90;;;;;;5091309;28;20016;-66
2022/07/24 12:42:36;;;;;;;32.78;19.77;;;27.50;99.90;;;;;;5094042;28;20022;-66
2022/07/24 12:45:13;;;;;;;28.13;19.63;;;27.40;99.90;;;;;;5092410;28;20019;-67
2022/07/24 12:48:16;;;;;;;29.23;20.25;;;27.40;99.90;;;;;;5093825;28;20028;-68
2022/07/24 12:50:59;;;;;;;29.50;20.00;;;27.40;99.90;;;;;;5117329;27;20032;-67
2022/07/24 12:53:28;;;;;;;38.08;23.85;;;27.40;99.90;;;;;;5093654;28;20028;-67
2022/07/24 12:56:14;;;;;;;102.53;75.45;;;27.30;99.90;;;;;;5093600;28;20028;-67
2022/07/24 12:58:53;;;;;;;41.58;30.83;;;27.30;99.90;;;;;;5092941;28;20055;-68
2022/07/24 13:01:20;;;;;;;116.28;89.38;;;27.40;99.90;;;;;;5092426;28;20419;-66
2022/07/24 13:03:57;;;;;;;137.93;96.85;;;27.40;99.90;;;;;;5093390;28;20051;-67
2022/07/24 13:06:35;;;;;;;126.47;86.40;;;27.50;99.90;;;;;;5093463;28;20433;-67
2022/07/24 13:09:02;;;;;;;50.70;32.45;;;27.60;99.90;;;;;;5093622;28;20035;-68
2022/07/24 13:11:29;;;;;;;52.17;33.85;;;27.50;99.90;;;;;;5090935;28;20435;-68
2022/07/24 13:13:55;;;;;;;56.58;35.08;;;27.40;99.90;;;;;;5093495;28;20012;-67
2022/07/24 13:16:26;;;;;;;48.50;31.65;;;27.40;99.90;;;;;;5093345;28;20020;-68
2022/07/24 13:18:52;;;;;;;49.60;32.30;;;27.40;99.90;;;;;;5091184;28;20012;-67
2022/07/24 13:21:19;;;;;;;52.70;32.28;;;27.40;99.90;;;;;;5093431;28;20026;-65
2022/07/24 13:23:46;;;;;;;47.95;31.08;;;27.30;99.90;;;;;;5089174;28;20013;-66
2022/07/24 13:26:12;;;;;;;56.33;32.50;;;27.30;99.90;;;;;;5091923;28;20070;-67
2022/07/24 13:28:40;;;;;;;47.17;30.35;;;27.20;99.90;;;;;;5090449;28;20212;-69
2022/07/24 13:31:06;;;;;;;46.65;31.25;;;27.30;99.90;;;;;;5092804;28;20103;-68
2022/07/24 13:33:33;;;;;;;42.80;29.92;;;27.40;99.90;;;;;;5093486;28;20064;-67
2022/07/24 13:36:00;;;;;;;42.83;31.02;;;27.40;99.90;;;;;;5093571;28;20118;-66
2022/07/24 13:38:26;;;;;;;47.65;32.30;;;27.40;99.90;;;;;;5093458;28;20496;-71
2022/07/24 13:40:53;;;;;;;47.47;32.22;;;27.40;99.90;;;;;;5093613;28;20030;-64
2022/07/24 13:43:20;;;;;;;45.60;31.48;;;27.40;99.90;;;;;;5086888;28;20055;-63
2022/07/24 13:45:46;;;;;;;48.95;31.05;;;27.40;99.90;;;;;;5077627;28;20021;-63
2022/07/24 13:48:13;;;;;;;46.35;32.10;;;27.30;99.90;;;;;;5073131;28;20013;-64
2022/07/24 13:50:39;;;;;;;41.67;28.60;;;27.40;99.90;;;;;;5073137;28;20021;-64
2022/07/24 13:53:06;;;;;;;49.25;29.98;;;27.40;99.90;;;;;;5072974;28;20016;-65
2022/07/24 13:55:32;;;;;;;46.38;29.80;;;27.30;99.90;;;;;;5072959;28;20017;-64
2022/07/24 13:57:59;;;;;;;50.25;31.33;;;27.30;99.90;;;;;;5074553;28;20020;-65
2022/07/24 14:00:25;;;;;;;46.88;30.27;;;27.30;99.90;;;;;;5076907;28;20024;-64
2022/07/24 14:02:57;;;;;;;43.20;29.50;;;27.30;99.90;;;;;;5076891;28;20028;-64
2022/07/24 14:05:24;;;;;;;43.00;28.00;;;27.30;99.90;;;;;;5076940;28;20025;-65
2022/07/24 14:07:52;;;;;;;46.25;30.98;;;27.40;99.90;;;;;;5076978;28;20094;-64
2022/07/24 14:10:19;;;;;;;42.72;29.48;;;27.40;99.90;;;;;;5084664;28;20028;-64
2022/07/24 14:12:46;;;;;;;49.95;32.08;;;27.50;99.90;;;;;;5081810;28;20052;-64
2022/07/24 14:15:13;;;;;;;53.40;32.28;;;27.50;99.90;;;;;;5086137;28;20027;-65
2022/07/24 14:17:40;;;;;;;51.42;32.15;;;27.50;99.90;;;;;;5076781;28;20021;-65
2022/07/24 14:20:09;;;;;;;50.50;32.33;;;27.40;99.90;;;;;;5076638;28;20021;-65
2022/07/24 14:22:36;;;;;;;48.75;31.83;;;27.30;99.90;;;;;;5076427;28;20016;-64
2022/07/24 14:25:04;;;;;;;52.70;32.67;;;27.30;99.90;;;;;;5076518;28;20048;-62
2022/07/24 14:27:31;;;;;;;51.40;32.88;;;27.30;99.90;;;;;;5076498;28;20099;-64
2022/07/24 14:29:59;;;;;;;52.25;32.90;;;27.40;99.90;;;;;;5076349;28;20477;-64
2022/07/24 14:32:26;;;;;;;49.42;31.70;;;27.40;99.90;;;;;;5076407;28;20033;-65
2022/07/24 14:34:52;;;;;;;49.60;31.80;;;27.40;99.90;;;;;;5076408;28;20029;-65
2022/07/24 14:37:19;;;;;;;52.15;31.88;;;27.40;99.90;;;;;;5075936;28;20044;-64
2022/07/24 14:39:45;;;;;;;48.72;33.08;;;27.40;99.90;;;;;;5076272;28;20103;-63
2022/07/24 14:42:12;;;;;;;48.90;32.17;;;27.40;99.90;;;;;;5076291;28;20504;-65
2022/07/24 14:44:38;;;;;;;45.17;31.40;;;27.50;99.90;;;;;;5076109;28;20020;-64
2022/07/24 14:47:05;;;;;;;47.35;30.15;;;27.30;99.90;;;;;;5076379;28;20024;-63
2022/07/24 14:49:32;;;;;;;49.47;33.25;;;27.20;99.90;;;;;;5076087;28;20155;-64
2022/07/24 14:52:00;;;;;;;52.35;33.25;;;27.30;99.90;;;;;;5076023;28;20025;-65
2022/07/24 14:54:26;;;;;;;44.45;32.25;;;27.30;99.90;;;;;;5076128;28;20058;-65
2022/07/24 14:56:53;;;;;;;50.30;33.75;;;27.40;99.90;;;;;;5075790;28;20032;-64
2022/07/24 14:59:19;;;;;;;54.63;34.67;;;27.50;99.90;;;;;;5075977;28;20027;-65
2022/07/24 15:01:46;;;;;;;59.70;37.35;;;27.50;99.90;;;;;;5080282;28;20027;-64
2022/07/24 15:04:13;;;;;;;55.03;38.03;;;27.60;99.90;;;;;;5095788;28;20015;-64
2022/07/24 15:06:39;;;;;;;51.47;34.92;;;27.50;99.90;;;;;;5095723;28;20012;-64
2022/07/24 15:09:06;;;;;;;54.42;34.95;;;27.60;99.90;;;;;;5095098;28;20107;-65
2022/07/24 15:11:33;;;;;;;54.13;35.05;;;27.60;99.90;;;;;;5095515;28;20582;-65
2022/07/24 15:13:59;;;;;;;55.25;37.05;;;27.60;99.90;;;;;;5095473;28;20489;-64
2022/07/24 15:16:26;;;;;;;50.13;34.70;;;27.60;99.90;;;;;;5095173;28;20016;-64
2022/07/24 15:18:52;;;;;;;48.13;33.55;;;27.60;99.90;;;;;;5095446;28;20065;-65
2022/07/24 15:21:19;;;;;;;54.60;34.15;;;27.60;99.90;;;;;;5095295;28;20016;-64
2022/07/24 15:23:45;;;;;;;47.50;31.95;;;27.60;99.90;;;;;;5095288;28;20461;-64
2022/07/24 15:26:12;;;;;;;50.90;32.33;;;27.60;99.90;;;;;;5095502;28;20034;-65
2022/07/24 15:28:38;;;;;;;56.83;35.00;;;27.60;99.90;;;;;;5095238;28;20522;-64
2022/07/24 15:31:05;;;;;;;67.20;37.97;;;27.40;99.90;;;;;;5095203;28;20441;-65
2022/07/24 15:33:32;;;;;;;87.32;41.13;;;27.30;99.90;;;;;;5095104;28;20066;-65
2022/07/24 15:35:58;;;;;;;89.10;49.63;;;27.20;99.90;;;;;;5095376;28;20469;-64
2022/07/24 15:38:26;;;;;;;84.32;48.13;;;27.10;99.90;;;;;;5095125;28;20044;-65
2022/07/24 15:40:52;;;;;;;83.93;46.03;;;27.20;99.90;;;;;;5095420;28;20090;-65
2022/07/24 15:43:20;;;;;;;80.50;45.42;;;27.10;99.90;;;;;;5095318;28;20457;-65
2022/07/24 15:45:46;;;;;;;73.13;44.42;;;27.10;99.90;;;;;;5095192;28;20468;-64
2022/07/24 15:48:13;;;;;;;81.50;45.90;;;27.20;99.90;;;;;;5095133;28;20020;-65
2022/07/24 15:50:40;;;;;;;63.72;38.55;;;27.20;99.90;;;;;;5095283;28;20473;-65
2022/07/24 15:53:06;;;;;;;61.50;35.30;;;27.20;99.90;;;;;;5095045;28;20030;-65
2022/07/24 15:55:33;;;;;;;53.90;35.47;;;27.30;99.90;;;;;;5094277;28;20055;-64
2022/07/24 15:57:59;;;;;;;50.03;32.33;;;27.30;99.90;;;;;;5094054;28;20022;-65
2022/07/24 16:00:26;;;;;;;54.35;32.55;;;27.30;99.90;;;;;;5093724;28;20012;-64
2022/07/24 16:02:52;;;;;;;49.42;31.50;;;27.30;99.90;;;;;;5093609;28;20020;-64
2022/07/24 16:05:22;;;;;;;41.88;29.67;;;27.30;99.90;;;;;;5093874;28;20008;-64
2022/07/24 16:07:50;;;;;;;40.08;29.10;;;27.20;99.90;;;;;;5094207;28;20028;-64
2022/07/24 16:10:17;;;;;;;46.95;28.85;;;27.20;99.90;;;;;;5094349;28;20366;-64
2022/07/24 16:12:45;;;;;;;40.90;27.98;;;27.20;99.90;;;;;;5094303;28;20053;-63
2022/07/24 16:15:13;;;;;;;40.40;27.17;;;27.20;99.90;;;;;;5094064;28;20024;-64